Terminal Aerodrome Forecast
Issued by NWS Grand Forks, ND

Home | Current Version | Previous Version | Graphics & Text | Print | Product List | Glossary On
Versions: 1 2 3 4 5 6 7 8 9 10 11 12 13 14 15 16 17 18 19 20 21 22 23
459
FTUS43 KFGF 081341 AAA
TAFFAR
TAF AMD
KFAR 081341Z 0814/0912 34018G25KT 2SM -SN OVC012
      TEMPO 0814/0815 1SM BLSN
     FM081500 34025G32KT 3SM -SN BLSN OVC015
     FM081700 34024G31KT P6SM BKN025
     FM090000 34012KT P6SM SCT050=

USA.gov is the U.S. government's official web portal to all federal, state and local government web resources and services.